Bayport, Minnesota
Current Conditions -  °F | °C
As of 12:11 PM on Thursday 27 Nov 2014 (Local Time) from K21D Reporting Station
Clear Clear  
Wind Chill:   Ceiling: Unl
Heat Index:   Visibility: 10mi
Dew Point:   Wind: 5mph
Humidity: 67%   Direction: 260°W
Pressure: 30.48"   Gusts: NA
Location:  45.02°N, 92.78°W
Report Text: K21D 271811Z AUTO 26004KT 10SM CLR M13/M18 A3048 RMK AO2
Loading
Personal Weather Stations






























Interactive Weather Map New forecast layout! Learn more

10-Day Weather Forecast

Advertisements
Track Severe Weather on mobile